sensor_id;sensor_type;location;lat;lon;timestamp;P1;durP1;ratioP1;P2;durP2;ratioP2
32501;SDS011;18952;52.516;13.460;2024-02-14T00:00:19;14.15;;;10.63;;
32501;SDS011;18952;52.516;13.460;2024-02-14T00:02:49;15.68;;;10.18;;
32501;SDS011;18952;52.516;13.460;2024-02-14T00:05:17;14.68;;;10.70;;
32501;SDS011;18952;52.516;13.460;2024-02-14T00:07:47;14.57;;;10.90;;
32501;SDS011;18952;52.516;13.460;2024-02-14T00:10:18;16.80;;;10.88;;
32501;SDS011;18952;52.516;13.460;2024-02-14T00:12:45;14.82;;;10.75;;
32501;SDS011;18952;52.516;13.460;2024-02-14T00:15:12;15.27;;;11.25;;
32501;SDS011;18952;52.516;13.460;2024-02-14T00:17:40;18.65;;;11.13;;
32501;SDS011;18952;52.516;13.460;2024-02-14T00:20:09;14.75;;;11.13;;
32501;SDS011;18952;52.516;13.460;2024-02-14T00:22:47;16.92;;;11.00;;
32501;SDS011;18952;52.516;13.460;2024-02-14T00:25:22;14.70;;;11.45;;
32501;SDS011;18952;52.516;13.460;2024-02-14T00:27:50;14.75;;;11.73;;
32501;SDS011;18952;52.516;13.460;2024-02-14T00:30:21;16.55;;;11.50;;
32501;SDS011;18952;52.516;13.460;2024-02-14T00:32:50;15.63;;;11.32;;
32501;SDS011;18952;52.516;13.460;2024-02-14T00:35:17;16.23;;;11.75;;
32501;SDS011;18952;52.516;13.460;2024-02-14T00:37:47;15.03;;;11.67;;
32501;SDS011;18952;52.516;13.460;2024-02-14T00:40:14;16.55;;;11.23;;
32501;SDS011;18952;52.516;13.460;2024-02-14T00:42:45;19.33;;;12.10;;
32501;SDS011;18952;52.516;13.460;2024-02-14T00:45:15;16.48;;;11.95;;
32501;SDS011;18952;52.516;13.460;2024-02-14T00:47:47;16.08;;;11.43;;
32501;SDS011;18952;52.516;13.460;2024-02-14T00:50:20;15.68;;;11.68;;
32501;SDS011;18952;52.516;13.460;2024-02-14T00:52:49;15.65;;;11.15;;
32501;SDS011;18952;52.516;13.460;2024-02-14T00:55:25;16.23;;;11.65;;
32501;SDS011;18952;52.516;13.460;2024-02-14T00:58:04;14.40;;;11.37;;
32501;SDS011;18952;52.516;13.460;2024-02-14T01:00:31;17.45;;;12.10;;
32501;SDS011;18952;52.516;13.460;2024-02-14T01:03:03;16.45;;;11.80;;
32501;SDS011;18952;52.516;13.460;2024-02-14T01:05:33;16.27;;;11.82;;
32501;SDS011;18952;52.516;13.460;2024-02-14T01:08:02;16.95;;;11.75;;
32501;SDS011;18952;52.516;13.460;2024-02-14T01:10:33;15.13;;;11.37;;
32501;SDS011;18952;52.516;13.460;2024-02-14T01:13:01;12.98;;;10.73;;
32501;SDS011;18952;52.516;13.460;2024-02-14T01:15:30;16.10;;;11.23;;
32501;SDS011;18952;52.516;13.460;2024-02-14T01:17:56;14.60;;;11.03;;
32501;SDS011;18952;52.516;13.460;2024-02-14T01:20:27;13.35;;;9.95;;
32501;SDS011;18952;52.516;13.460;2024-02-14T01:22:56;16.13;;;10.18;;
32501;SDS011;18952;52.516;13.460;2024-02-14T01:25:25;14.60;;;10.32;;
32501;SDS011;18952;52.516;13.460;2024-02-14T01:27:54;13.35;;;10.20;;
32501;SDS011;18952;52.516;13.460;2024-02-14T01:30:23;16.42;;;10.73;;
32501;SDS011;18952;52.516;13.460;2024-02-14T01:32:54;14.15;;;10.23;;
32501;SDS011;18952;52.516;13.460;2024-02-14T01:35:21;13.03;;;10.43;;
32501;SDS011;18952;52.516;13.460;2024-02-14T01:37:49;18.73;;;10.50;;
32501;SDS011;18952;52.516;13.460;2024-02-14T01:40:15;14.80;;;10.40;;
32501;SDS011;18952;52.516;13.460;2024-02-14T01:42:42;14.63;;;9.85;;
32501;SDS011;18952;52.516;13.460;2024-02-14T01:45:09;13.05;;;10.07;;
32501;SDS011;18952;52.516;13.460;2024-02-14T01:47:37;13.57;;;9.82;;
32501;SDS011;18952;52.516;13.460;2024-02-14T01:50:06;13.52;;;9.75;;
32501;SDS011;18952;52.516;13.460;2024-02-14T01:52:39;15.07;;;9.45;;
32501;SDS011;18952;52.516;13.460;2024-02-14T01:55:11;13.98;;;9.43;;
32501;SDS011;18952;52.516;13.460;2024-02-14T01:57:42;13.93;;;10.25;;
32501;SDS011;18952;52.516;13.460;2024-02-14T02:00:11;10.98;;;9.80;;
32501;SDS011;18952;52.516;13.460;2024-02-14T02:02:40;12.93;;;10.30;;
32501;SDS011;18952;52.516;13.460;2024-02-14T02:05:06;13.55;;;10.20;;
32501;SDS011;18952;52.516;13.460;2024-02-14T02:07:35;11.77;;;9.23;;
32501;SDS011;18952;52.516;13.460;2024-02-14T02:10:02;12.23;;;9.50;;
32501;SDS011;18952;52.516;13.460;2024-02-14T02:12:29;12.07;;;9.38;;
32501;SDS011;18952;52.516;13.460;2024-02-14T02:14:57;11.57;;;8.88;;
32501;SDS011;18952;52.516;13.460;2024-02-14T02:17:29;13.13;;;9.77;;
32501;SDS011;18952;52.516;13.460;2024-02-14T02:19:57;11.75;;;9.13;;
32501;SDS011;18952;52.516;13.460;2024-02-14T02:22:23;13.07;;;9.60;;
32501;SDS011;18952;52.516;13.460;2024-02-14T02:24:50;16.20;;;8.95;;
32501;SDS011;18952;52.516;13.460;2024-02-14T02:27:17;13.35;;;8.80;;
32501;SDS011;18952;52.516;13.460;2024-02-14T02:29:45;10.27;;;9.02;;
32501;SDS011;18952;52.516;13.460;2024-02-14T02:32:12;11.43;;;9.23;;
32501;SDS011;18952;52.516;13.460;2024-02-14T02:34:39;11.48;;;8.90;;
32501;SDS011;18952;52.516;13.460;2024-02-14T02:37:07;11.40;;;8.75;;
32501;SDS011;18952;52.516;13.460;2024-02-14T02:39:34;10.73;;;8.55;;
32501;SDS011;18952;52.516;13.460;2024-02-14T02:42:00;11.50;;;8.48;;
32501;SDS011;18952;52.516;13.460;2024-02-14T02:44:30;12.15;;;8.52;;
32501;SDS011;18952;52.516;13.460;2024-02-14T02:46:58;10.80;;;8.17;;
32501;SDS011;18952;52.516;13.460;2024-02-14T02:49:25;11.48;;;8.30;;
32501;SDS011;18952;52.516;13.460;2024-02-14T02:51:54;8.82;;;7.63;;
32501;SDS011;18952;52.516;13.460;2024-02-14T02:54:21;14.13;;;8.23;;
32501;SDS011;18952;52.516;13.460;2024-02-14T02:56:49;11.10;;;8.03;;
32501;SDS011;18952;52.516;13.460;2024-02-14T02:59:16;11.45;;;8.07;;
32501;SDS011;18952;52.516;13.460;2024-02-14T03:01:43;10.13;;;8.18;;
32501;SDS011;18952;52.516;13.460;2024-02-14T03:04:11;11.40;;;7.95;;
32501;SDS011;18952;52.516;13.460;2024-02-14T03:06:40;11.43;;;7.53;;
32501;SDS011;18952;52.516;13.460;2024-02-14T03:09:10;9.10;;;7.22;;
32501;SDS011;18952;52.516;13.460;2024-02-14T03:11:40;11.77;;;7.77;;
32501;SDS011;18952;52.516;13.460;2024-02-14T03:14:12;11.52;;;7.50;;
32501;SDS011;18952;52.516;13.460;2024-02-14T03:16:38;9.57;;;7.40;;
32501;SDS011;18952;52.516;13.460;2024-02-14T03:19:06;9.52;;;7.40;;
32501;SDS011;18952;52.516;13.460;2024-02-14T03:21:33;11.93;;;7.43;;
32501;SDS011;18952;52.516;13.460;2024-02-14T03:24:00;9.38;;;7.80;;
32501;SDS011;18952;52.516;13.460;2024-02-14T03:26:29;9.80;;;7.45;;
32501;SDS011;18952;52.516;13.460;2024-02-14T03:28:58;12.30;;;7.90;;
32501;SDS011;18952;52.516;13.460;2024-02-14T03:31:25;11.50;;;7.85;;
32501;SDS011;18952;52.516;13.460;2024-02-14T03:33:54;9.98;;;7.68;;
32501;SDS011;18952;52.516;13.460;2024-02-14T03:36:21;9.20;;;7.22;;
32501;SDS011;18952;52.516;13.460;2024-02-14T03:38:48;9.52;;;7.55;;
32501;SDS011;18952;52.516;13.460;2024-02-14T03:41:15;12.15;;;8.00;;
32501;SDS011;18952;52.516;13.460;2024-02-14T03:43:41;9.18;;;7.63;;
32501;SDS011;18952;52.516;13.460;2024-02-14T03:46:09;13.20;;;7.32;;
32501;SDS011;18952;52.516;13.460;2024-02-14T03:48:36;11.02;;;7.88;;
32501;SDS011;18952;52.516;13.460;2024-02-14T03:51:03;11.95;;;7.93;;
32501;SDS011;18952;52.516;13.460;2024-02-14T03:53:33;12.90;;;7.93;;
32501;SDS011;18952;52.516;13.460;2024-02-14T03:56:00;8.48;;;7.55;;
32501;SDS011;18952;52.516;13.460;2024-02-14T03:58:27;9.45;;;8.45;;
32501;SDS011;18952;52.516;13.460;2024-02-14T04:00:57;12.80;;;9.07;;
32501;SDS011;18952;52.516;13.460;2024-02-14T04:03:24;11.38;;;8.35;;
32501;SDS011;18952;52.516;13.460;2024-02-14T04:05:52;11.30;;;8.80;;
32501;SDS011;18952;52.516;13.460;2024-02-14T04:08:20;12.18;;;9.50;;
32501;SDS011;18952;52.516;13.460;2024-02-14T04:10:47;12.88;;;8.57;;
32501;SDS011;18952;52.516;13.460;2024-02-14T04:13:16;11.83;;;9.03;;
32501;SDS011;18952;52.516;13.460;2024-02-14T04:15:44;11.02;;;9.15;;
32501;SDS011;18952;52.516;13.460;2024-02-14T04:18:11;14.75;;;10.00;;
32501;SDS011;18952;52.516;13.460;2024-02-14T04:20:40;12.23;;;9.98;;
32501;SDS011;18952;52.516;13.460;2024-02-14T04:23:08;13.30;;;9.85;;
32501;SDS011;18952;52.516;13.460;2024-02-14T04:25:36;13.95;;;9.95;;
32501;SDS011;18952;52.516;13.460;2024-02-14T04:28:06;14.13;;;9.82;;
32501;SDS011;18952;52.516;13.460;2024-02-14T04:30:34;13.20;;;10.03;;
32501;SDS011;18952;52.516;13.460;2024-02-14T04:33:02;12.77;;;10.25;;
32501;SDS011;18952;52.516;13.460;2024-02-14T04:35:30;11.10;;;9.63;;
32501;SDS011;18952;52.516;13.460;2024-02-14T04:37:57;11.80;;;9.23;;
32501;SDS011;18952;52.516;13.460;2024-02-14T04:40:26;14.57;;;9.80;;
32501;SDS011;18952;52.516;13.460;2024-02-14T04:42:55;11.30;;;9.70;;
32501;SDS011;18952;52.516;13.460;2024-02-14T04:45:21;13.88;;;9.57;;
32501;SDS011;18952;52.516;13.460;2024-02-14T04:47:48;12.73;;;9.10;;
32501;SDS011;18952;52.516;13.460;2024-02-14T04:50:16;14.70;;;9.80;;
32501;SDS011;18952;52.516;13.460;2024-02-14T04:52:44;11.02;;;9.20;;
32501;SDS011;18952;52.516;13.460;2024-02-14T04:55:12;15.57;;;9.90;;
32501;SDS011;18952;52.516;13.460;2024-02-14T04:57:40;11.68;;;9.57;;
32501;SDS011;18952;52.516;13.460;2024-02-14T05:00:08;14.35;;;10.13;;
32501;SDS011;18952;52.516;13.460;2024-02-14T05:02:36;12.93;;;9.60;;
32501;SDS011;18952;52.516;13.460;2024-02-14T05:05:03;13.43;;;10.50;;
32501;SDS011;18952;52.516;13.460;2024-02-14T05:07:30;12.52;;;9.73;;
32501;SDS011;18952;52.516;13.460;2024-02-14T05:09:57;13.55;;;10.48;;
32501;SDS011;18952;52.516;13.460;2024-02-14T05:12:25;13.68;;;9.85;;
32501;SDS011;18952;52.516;13.460;2024-02-14T05:14:55;15.50;;;10.57;;
32501;SDS011;18952;52.516;13.460;2024-02-14T05:17:23;15.82;;;10.50;;
32501;SDS011;18952;52.516;13.460;2024-02-14T05:19:52;18.05;;;11.20;;
32501;SDS011;18952;52.516;13.460;2024-02-14T05:22:19;13.63;;;10.60;;
32501;SDS011;18952;52.516;13.460;2024-02-14T05:24:47;12.25;;;10.15;;
32501;SDS011;18952;52.516;13.460;2024-02-14T05:27:14;12.47;;;9.73;;
32501;SDS011;18952;52.516;13.460;2024-02-14T05:29:42;14.90;;;10.50;;
32501;SDS011;18952;52.516;13.460;2024-02-14T05:32:09;13.95;;;10.00;;
32501;SDS011;18952;52.516;13.460;2024-02-14T05:34:40;12.93;;;9.95;;
32501;SDS011;18952;52.516;13.460;2024-02-14T05:37:07;15.05;;;10.18;;
32501;SDS011;18952;52.516;13.460;2024-02-14T05:39:37;12.95;;;9.93;;
32501;SDS011;18952;52.516;13.460;2024-02-14T05:42:07;14.05;;;9.50;;
32501;SDS011;18952;52.516;13.460;2024-02-14T05:44:36;13.05;;;9.93;;
32501;SDS011;18952;52.516;13.460;2024-02-14T05:47:04;13.25;;;9.50;;
32501;SDS011;18952;52.516;13.460;2024-02-14T05:49:30;12.75;;;10.27;;
32501;SDS011;18952;52.516;13.460;2024-02-14T05:51:59;12.82;;;9.27;;
32501;SDS011;18952;52.516;13.460;2024-02-14T05:54:26;14.38;;;9.68;;
32501;SDS011;18952;52.516;13.460;2024-02-14T05:56:54;12.13;;;8.98;;
32501;SDS011;18952;52.516;13.460;2024-02-14T05:59:20;11.38;;;8.93;;
32501;SDS011;18952;52.516;13.460;2024-02-14T06:01:48;13.77;;;9.02;;
32501;SDS011;18952;52.516;13.460;2024-02-14T06:04:15;13.95;;;9.15;;
32501;SDS011;18952;52.516;13.460;2024-02-14T06:06:42;14.33;;;9.13;;
32501;SDS011;18952;52.516;13.460;2024-02-14T06:09:10;12.00;;;8.88;;
32501;SDS011;18952;52.516;13.460;2024-02-14T06:11:40;13.93;;;8.98;;
32501;SDS011;18952;52.516;13.460;2024-02-14T06:14:10;15.63;;;8.95;;
32501;SDS011;18952;52.516;13.460;2024-02-14T06:16:38;13.52;;;9.85;;
32501;SDS011;18952;52.516;13.460;2024-02-14T06:19:05;18.00;;;10.05;;
32501;SDS011;18952;52.516;13.460;2024-02-14T06:21:33;15.23;;;9.70;;
32501;SDS011;18952;52.516;13.460;2024-02-14T06:24:01;13.40;;;9.57;;
32501;SDS011;18952;52.516;13.460;2024-02-14T06:26:28;13.82;;;9.63;;
32501;SDS011;18952;52.516;13.460;2024-02-14T06:28:57;21.63;;;9.20;;
32501;SDS011;18952;52.516;13.460;2024-02-14T06:31:23;16.30;;;10.18;;
32501;SDS011;18952;52.516;13.460;2024-02-14T06:33:50;13.93;;;9.57;;
32501;SDS011;18952;52.516;13.460;2024-02-14T06:36:18;14.68;;;9.93;;
32501;SDS011;18952;52.516;13.460;2024-02-14T06:38:45;18.13;;;10.40;;
32501;SDS011;18952;52.516;13.460;2024-02-14T06:41:16;15.45;;;10.35;;
32501;SDS011;18952;52.516;13.460;2024-02-14T06:43:48;19.87;;;9.73;;
32501;SDS011;18952;52.516;13.460;2024-02-14T06:46:15;17.65;;;9.77;;
32501;SDS011;18952;52.516;13.460;2024-02-14T06:48:43;15.90;;;9.60;;
32501;SDS011;18952;52.516;13.460;2024-02-14T06:51:11;14.27;;;9.35;;
32501;SDS011;18952;52.516;13.460;2024-02-14T06:53:38;20.58;;;10.07;;
32501;SDS011;18952;52.516;13.460;2024-02-14T06:56:10;20.63;;;11.17;;
32501;SDS011;18952;52.516;13.460;2024-02-14T06:58:39;18.63;;;11.48;;
32501;SDS011;18952;52.516;13.460;2024-02-14T07:01:06;13.52;;;10.10;;
32501;SDS011;18952;52.516;13.460;2024-02-14T07:03:34;13.95;;;9.38;;
32501;SDS011;18952;52.516;13.460;2024-02-14T07:06:03;14.30;;;9.45;;
32501;SDS011;18952;52.516;13.460;2024-02-14T07:08:31;15.80;;;9.93;;
32501;SDS011;18952;52.516;13.460;2024-02-14T07:10:59;17.80;;;9.80;;
32501;SDS011;18952;52.516;13.460;2024-02-14T07:13:26;16.85;;;8.75;;
32501;SDS011;18952;52.516;13.460;2024-02-14T07:15:54;15.25;;;9.13;;
32501;SDS011;18952;52.516;13.460;2024-02-14T07:18:20;13.37;;;8.40;;
32501;SDS011;18952;52.516;13.460;2024-02-14T07:20:49;15.90;;;8.93;;
32501;SDS011;18952;52.516;13.460;2024-02-14T07:23:18;14.48;;;9.15;;
32501;SDS011;18952;52.516;13.460;2024-02-14T07:25:46;13.82;;;8.73;;
32501;SDS011;18952;52.516;13.460;2024-02-14T07:28:13;15.45;;;8.95;;
32501;SDS011;18952;52.516;13.460;2024-02-14T07:30:41;17.15;;;8.95;;
32501;SDS011;18952;52.516;13.460;2024-02-14T07:33:08;13.32;;;8.48;;
32501;SDS011;18952;52.516;13.460;2024-02-14T07:35:36;14.38;;;8.52;;
32501;SDS011;18952;52.516;13.460;2024-02-14T07:38:03;14.02;;;8.07;;
32501;SDS011;18952;52.516;13.460;2024-02-14T07:40:31;13.18;;;8.48;;
32501;SDS011;18952;52.516;13.460;2024-02-14T07:42:59;13.20;;;7.27;;
32501;SDS011;18952;52.516;13.460;2024-02-14T07:45:28;10.40;;;7.15;;
32501;SDS011;18952;52.516;13.460;2024-02-14T07:47:56;13.75;;;7.20;;
32501;SDS011;18952;52.516;13.460;2024-02-14T07:50:24;12.43;;;7.07;;
32501;SDS011;18952;52.516;13.460;2024-02-14T07:52:51;11.98;;;7.25;;
32501;SDS011;18952;52.516;13.460;2024-02-14T07:55:19;12.25;;;7.47;;
32501;SDS011;18952;52.516;13.460;2024-02-14T07:57:47;19.13;;;8.10;;
32501;SDS011;18952;52.516;13.460;2024-02-14T08:00:15;12.60;;;7.68;;
32501;SDS011;18952;52.516;13.460;2024-02-14T08:02:43;21.42;;;7.80;;
32501;SDS011;18952;52.516;13.460;2024-02-14T08:05:11;12.33;;;7.53;;
32501;SDS011;18952;52.516;13.460;2024-02-14T08:07:38;14.75;;;7.32;;
32501;SDS011;18952;52.516;13.460;2024-02-14T08:10:06;12.23;;;7.45;;
32501;SDS011;18952;52.516;13.460;2024-02-14T08:12:33;12.20;;;7.25;;
32501;SDS011;18952;52.516;13.460;2024-02-14T08:15:00;17.10;;;7.43;;
32501;SDS011;18952;52.516;13.460;2024-02-14T08:17:28;12.38;;;7.43;;
32501;SDS011;18952;52.516;13.460;2024-02-14T08:19:56;12.95;;;7.50;;
32501;SDS011;18952;52.516;13.460;2024-02-14T08:22:24;16.27;;;7.45;;
32501;SDS011;18952;52.516;13.460;2024-02-14T08:24:50;16.45;;;7.85;;
32501;SDS011;18952;52.516;13.460;2024-02-14T08:27:19;11.27;;;8.15;;
32501;SDS011;18952;52.516;13.460;2024-02-14T08:29:47;12.87;;;8.53;;
32501;SDS011;18952;52.516;13.460;2024-02-14T08:32:14;12.70;;;7.80;;
32501;SDS011;18952;52.516;13.460;2024-02-14T08:34:42;15.32;;;9.30;;
32501;SDS011;18952;52.516;13.460;2024-02-14T08:37:10;15.23;;;11.07;;
32501;SDS011;18952;52.516;13.460;2024-02-14T08:39:38;16.27;;;11.57;;
32501;SDS011;18952;52.516;13.460;2024-02-14T08:42:07;17.05;;;10.35;;
32501;SDS011;18952;52.516;13.460;2024-02-14T08:44:35;18.50;;;13.10;;
32501;SDS011;18952;52.516;13.460;2024-02-14T08:47:03;18.15;;;11.75;;
32501;SDS011;18952;52.516;13.460;2024-02-14T08:49:30;16.00;;;9.40;;
32501;SDS011;18952;52.516;13.460;2024-02-14T08:51:57;12.75;;;8.68;;
32501;SDS011;18952;52.516;13.460;2024-02-14T08:54:23;10.02;;;7.93;;
32501;SDS011;18952;52.516;13.460;2024-02-14T08:56:51;13.40;;;8.75;;
32501;SDS011;18952;52.516;13.460;2024-02-14T08:59:18;16.67;;;7.55;;
32501;SDS011;18952;52.516;13.460;2024-02-14T09:01:47;11.25;;;6.63;;
32501;SDS011;18952;52.516;13.460;2024-02-14T09:04:14;10.63;;;6.80;;
32501;SDS011;18952;52.516;13.460;2024-02-14T09:06:41;8.80;;;6.32;;
32501;SDS011;18952;52.516;13.460;2024-02-14T09:09:09;15.43;;;6.60;;
32501;SDS011;18952;52.516;13.460;2024-02-14T09:11:37;10.43;;;5.93;;
32501;SDS011;18952;52.516;13.460;2024-02-14T09:14:04;10.77;;;6.07;;
32501;SDS011;18952;52.516;13.460;2024-02-14T09:16:33;9.27;;;5.70;;
32501;SDS011;18952;52.516;13.460;2024-02-14T09:19:01;8.23;;;6.32;;
32501;SDS011;18952;52.516;13.460;2024-02-14T09:21:29;9.20;;;6.65;;
32501;SDS011;18952;52.516;13.460;2024-02-14T09:23:56;10.52;;;6.00;;
32501;SDS011;18952;52.516;13.460;2024-02-14T09:26:25;11.00;;;6.28;;
32501;SDS011;18952;52.516;13.460;2024-02-14T09:28:54;10.95;;;5.57;;
32501;SDS011;18952;52.516;13.460;2024-02-14T09:31:21;10.67;;;5.70;;
32501;SDS011;18952;52.516;13.460;2024-02-14T09:33:48;10.38;;;5.68;;
32501;SDS011;18952;52.516;13.460;2024-02-14T09:36:17;10.32;;;6.07;;
32501;SDS011;18952;52.516;13.460;2024-02-14T09:38:43;10.18;;;5.47;;
32501;SDS011;18952;52.516;13.460;2024-02-14T09:41:29;8.38;;;5.30;;
32501;SDS011;18952;52.516;13.460;2024-02-14T09:44:08;7.82;;;5.55;;
32501;SDS011;18952;52.516;13.460;2024-02-14T09:46:39;13.32;;;5.63;;
32501;SDS011;18952;52.516;13.460;2024-02-14T09:49:07;8.32;;;5.20;;
32501;SDS011;18952;52.516;13.460;2024-02-14T09:51:39;7.82;;;5.20;;
32501;SDS011;18952;52.516;13.460;2024-02-14T09:54:10;10.70;;;5.17;;
32501;SDS011;18952;52.516;13.460;2024-02-14T09:56:37;9.63;;;5.10;;
32501;SDS011;18952;52.516;13.460;2024-02-14T09:59:05;12.43;;;5.57;;
32501;SDS011;18952;52.516;13.460;2024-02-14T10:01:37;11.07;;;4.72;;
32501;SDS011;18952;52.516;13.460;2024-02-14T10:04:05;11.77;;;5.00;;
32501;SDS011;18952;52.516;13.460;2024-02-14T10:06:36;6.93;;;4.65;;
32501;SDS011;18952;52.516;13.460;2024-02-14T10:09:07;10.55;;;5.28;;
32501;SDS011;18952;52.516;13.460;2024-02-14T10:11:35;8.45;;;4.80;;
32501;SDS011;18952;52.516;13.460;2024-02-14T10:14:06;8.20;;;4.63;;
32501;SDS011;18952;52.516;13.460;2024-02-14T10:16:35;11.43;;;4.75;;
32501;SDS011;18952;52.516;13.460;2024-02-14T10:19:02;8.20;;;4.90;;
32501;SDS011;18952;52.516;13.460;2024-02-14T10:21:30;9.45;;;5.18;;
32501;SDS011;18952;52.516;13.460;2024-02-14T10:23:59;8.50;;;4.57;;
32501;SDS011;18952;52.516;13.460;2024-02-14T10:26:27;10.13;;;5.18;;
32501;SDS011;18952;52.516;13.460;2024-02-14T10:28:57;11.05;;;4.85;;
32501;SDS011;18952;52.516;13.460;2024-02-14T10:31:25;10.23;;;5.97;;
32501;SDS011;18952;52.516;13.460;2024-02-14T10:33:54;9.60;;;5.43;;
32501;SDS011;18952;52.516;13.460;2024-02-14T10:36:23;7.68;;;4.97;;
32501;SDS011;18952;52.516;13.460;2024-02-14T10:38:50;7.70;;;4.57;;
32501;SDS011;18952;52.516;13.460;2024-02-14T10:41:19;7.03;;;4.67;;
32501;SDS011;18952;52.516;13.460;2024-02-14T10:43:45;9.00;;;5.13;;
32501;SDS011;18952;52.516;13.460;2024-02-14T10:46:23;7.90;;;5.10;;
32501;SDS011;18952;52.516;13.460;2024-02-14T10:48:53;8.75;;;5.70;;
32501;SDS011;18952;52.516;13.460;2024-02-14T10:51:25;13.85;;;5.03;;
32501;SDS011;18952;52.516;13.460;2024-02-14T10:53:56;17.05;;;5.70;;
32501;SDS011;18952;52.516;13.460;2024-02-14T10:56:25;12.33;;;5.80;;
32501;SDS011;18952;52.516;13.460;2024-02-14T10:58:59;7.95;;;4.85;;
32501;SDS011;18952;52.516;13.460;2024-02-14T11:01:27;8.48;;;5.18;;
32501;SDS011;18952;52.516;13.460;2024-02-14T11:03:56;7.75;;;4.78;;
32501;SDS011;18952;52.516;13.460;2024-02-14T11:06:27;8.90;;;4.88;;
32501;SDS011;18952;52.516;13.460;2024-02-14T11:09:01;8.80;;;4.90;;
32501;SDS011;18952;52.516;13.460;2024-02-14T11:11:30;8.07;;;4.78;;
32501;SDS011;18952;52.516;13.460;2024-02-14T11:14:00;10.83;;;4.83;;
32501;SDS011;18952;52.516;13.460;2024-02-14T11:16:27;7.30;;;4.80;;
32501;SDS011;18952;52.516;13.460;2024-02-14T11:19:11;7.75;;;4.68;;
32501;SDS011;18952;52.516;13.460;2024-02-14T11:21:41;6.85;;;4.25;;
32501;SDS011;18952;52.516;13.460;2024-02-14T11:24:11;7.17;;;4.47;;
32501;SDS011;18952;52.516;13.460;2024-02-14T11:26:40;7.75;;;4.72;;
32501;SDS011;18952;52.516;13.460;2024-02-14T11:29:17;8.98;;;4.65;;
32501;SDS011;18952;52.516;13.460;2024-02-14T11:31:57;9.30;;;5.38;;
32501;SDS011;18952;52.516;13.460;2024-02-14T11:34:26;8.80;;;5.38;;
32501;SDS011;18952;52.516;13.460;2024-02-14T11:36:55;9.67;;;5.83;;
32501;SDS011;18952;52.516;13.460;2024-02-14T11:39:24;10.10;;;5.90;;
32501;SDS011;18952;52.516;13.460;2024-02-14T11:41:51;9.43;;;5.40;;
32501;SDS011;18952;52.516;13.460;2024-02-14T11:44:20;10.73;;;4.50;;
32501;SDS011;18952;52.516;13.460;2024-02-14T11:46:47;10.85;;;5.75;;
32501;SDS011;18952;52.516;13.460;2024-02-14T11:49:16;8.75;;;4.97;;
32501;SDS011;18952;52.516;13.460;2024-02-14T11:51:44;7.75;;;5.07;;
32501;SDS011;18952;52.516;13.460;2024-02-14T11:54:11;12.60;;;4.93;;
32501;SDS011;18952;52.516;13.460;2024-02-14T11:56:39;6.88;;;4.70;;
32501;SDS011;18952;52.516;13.460;2024-02-14T11:59:08;11.52;;;5.07;;
32501;SDS011;18952;52.516;13.460;2024-02-14T12:01:36;9.18;;;4.88;;
32501;SDS011;18952;52.516;13.460;2024-02-14T12:04:05;11.85;;;6.05;;
32501;SDS011;18952;52.516;13.460;2024-02-14T12:06:34;8.90;;;5.53;;
32501;SDS011;18952;52.516;13.460;2024-02-14T12:09:02;9.77;;;5.25;;
32501;SDS011;18952;52.516;13.460;2024-02-14T12:11:34;12.15;;;5.90;;
32501;SDS011;18952;52.516;13.460;2024-02-14T12:14:03;10.00;;;6.00;;
32501;SDS011;18952;52.516;13.460;2024-02-14T12:16:36;12.20;;;6.18;;
32501;SDS011;18952;52.516;13.460;2024-02-14T12:19:04;11.25;;;5.90;;
32501;SDS011;18952;52.516;13.460;2024-02-14T12:21:46;8.07;;;5.90;;
32501;SDS011;18952;52.516;13.460;2024-02-14T12:24:13;11.00;;;6.20;;
32501;SDS011;18952;52.516;13.460;2024-02-14T12:26:43;11.20;;;5.90;;
32501;SDS011;18952;52.516;13.460;2024-02-14T12:29:13;9.93;;;6.45;;
32501;SDS011;18952;52.516;13.460;2024-02-14T12:31:42;9.07;;;5.13;;
32501;SDS011;18952;52.516;13.460;2024-02-14T12:34:10;15.50;;;6.28;;
32501;SDS011;18952;52.516;13.460;2024-02-14T12:36:38;10.65;;;6.45;;
32501;SDS011;18952;52.516;13.460;2024-02-14T12:39:05;10.15;;;6.78;;
32501;SDS011;18952;52.516;13.460;2024-02-14T12:41:33;10.35;;;6.70;;
32501;SDS011;18952;52.516;13.460;2024-02-14T12:44:00;11.63;;;6.50;;
32501;SDS011;18952;52.516;13.460;2024-02-14T12:46:28;12.27;;;6.28;;
32501;SDS011;18952;52.516;13.460;2024-02-14T12:48:58;10.07;;;6.63;;
32501;SDS011;18952;52.516;13.460;2024-02-14T12:51:25;11.82;;;6.95;;
32501;SDS011;18952;52.516;13.460;2024-02-14T12:53:56;9.32;;;6.15;;
32501;SDS011;18952;52.516;13.460;2024-02-14T12:56:24;10.02;;;5.95;;
32501;SDS011;18952;52.516;13.460;2024-02-14T12:58:54;11.55;;;6.40;;
32501;SDS011;18952;52.516;13.460;2024-02-14T13:01:20;9.25;;;5.80;;
32501;SDS011;18952;52.516;13.460;2024-02-14T13:03:49;9.55;;;5.85;;
32501;SDS011;18952;52.516;13.460;2024-02-14T13:06:16;10.98;;;5.60;;
32501;SDS011;18952;52.516;13.460;2024-02-14T13:08:44;12.57;;;5.45;;
32501;SDS011;18952;52.516;13.460;2024-02-14T13:11:14;8.20;;;5.65;;
32501;SDS011;18952;52.516;13.460;2024-02-14T13:13:45;7.88;;;5.40;;
32501;SDS011;18952;52.516;13.460;2024-02-14T13:16:13;9.43;;;5.47;;
32501;SDS011;18952;52.516;13.460;2024-02-14T13:18:41;14.25;;;5.80;;
32501;SDS011;18952;52.516;13.460;2024-02-14T13:21:10;18.25;;;10.45;;
32501;SDS011;18952;52.516;13.460;2024-02-14T13:23:38;10.25;;;6.45;;
32501;SDS011;18952;52.516;13.460;2024-02-14T13:26:05;12.45;;;6.43;;
32501;SDS011;18952;52.516;13.460;2024-02-14T13:28:33;10.60;;;6.80;;
32501;SDS011;18952;52.516;13.460;2024-02-14T13:31:00;10.82;;;6.57;;
32501;SDS011;18952;52.516;13.460;2024-02-14T13:33:27;9.87;;;7.10;;
32501;SDS011;18952;52.516;13.460;2024-02-14T13:35:58;14.73;;;7.23;;
32501;SDS011;18952;52.516;13.460;2024-02-14T13:38:27;9.98;;;7.10;;
32501;SDS011;18952;52.516;13.460;2024-02-14T13:40:55;11.93;;;7.93;;
32501;SDS011;18952;52.516;13.460;2024-02-14T13:43:24;9.70;;;7.28;;
32501;SDS011;18952;52.516;13.460;2024-02-14T13:45:52;12.73;;;7.85;;
32501;SDS011;18952;52.516;13.460;2024-02-14T13:48:19;10.75;;;7.32;;
32501;SDS011;18952;52.516;13.460;2024-02-14T13:50:49;11.23;;;7.70;;
32501;SDS011;18952;52.516;13.460;2024-02-14T13:53:16;11.82;;;7.93;;
32501;SDS011;18952;52.516;13.460;2024-02-14T13:55:44;14.30;;;8.00;;
32501;SDS011;18952;52.516;13.460;2024-02-14T13:58:11;11.80;;;7.95;;
32501;SDS011;18952;52.516;13.460;2024-02-14T14:00:38;11.82;;;7.65;;
32501;SDS011;18952;52.516;13.460;2024-02-14T14:03:06;14.68;;;8.50;;
32501;SDS011;18952;52.516;13.460;2024-02-14T14:05:33;12.52;;;7.70;;
32501;SDS011;18952;52.516;13.460;2024-02-14T14:08:01;13.30;;;7.80;;
32501;SDS011;18952;52.516;13.460;2024-02-14T14:10:28;13.07;;;8.77;;
32501;SDS011;18952;52.516;13.460;2024-02-14T14:12:57;10.57;;;7.60;;
32501;SDS011;18952;52.516;13.460;2024-02-14T14:15:25;11.77;;;8.00;;
32501;SDS011;18952;52.516;13.460;2024-02-14T14:17:57;10.23;;;7.25;;
32501;SDS011;18952;52.516;13.460;2024-02-14T14:20:27;11.40;;;8.23;;
32501;SDS011;18952;52.516;13.460;2024-02-14T14:22:57;12.43;;;8.80;;
32501;SDS011;18952;52.516;13.460;2024-02-14T14:25:24;16.92;;;8.27;;
32501;SDS011;18952;52.516;13.460;2024-02-14T14:27:53;12.45;;;8.25;;